Time;durP1;ratioP1;P1;durP2;ratioP2;P2;SDS_P1;SDS_P2;PMS_P1;PMS_P2;Temp;Humidity;BMP_temperature;BMP_pressure;BME280_temperature;BME280_humidity;BME280_pressure;Samples;Min_cycle;Max_cycle;Signal;HPM_P1;HPM_P2
2021/01/15 00:01:58;;;;;;;8.73;2.83;;;2.30;76.70;;;;;;4914944;29;20038;-81
2021/01/15 00:04:23;;;;;;;4.47;2.47;;;2.30;76.10;;;;;;4917822;29;20084;-80
2021/01/15 00:06:49;;;;;;;4.07;2.40;;;2.30;76.20;;;;;;4923074;29;20036;-78
2021/01/15 00:09:15;;;;;;;5.90;2.70;;;2.40;76.20;;;;;;4913811;29;20036;-79
2021/01/15 00:11:40;;;;;;;4.23;2.43;;;2.40;75.70;;;;;;4934935;29;20465;-78
2021/01/15 00:14:06;;;;;;;4.50;2.40;;;2.40;75.10;;;;;;4942521;28;20032;-79
2021/01/15 00:16:33;;;;;;;7.20;2.60;;;2.40;75.20;;;;;;4928513;29;20447;-79
2021/01/15 00:19:00;;;;;;;4.20;2.03;;;2.40;74.70;;;;;;4933672;29;20040;-78
2021/01/15 00:21:34;;;;;;;4.50;2.30;;;2.40;74.80;;;;;;4928008;29;20036;-78
2021/01/15 00:24:03;;;;;;;4.43;2.37;;;2.40;75.50;;;;;;4925108;29;20059;-79
2021/01/15 00:26:29;;;;;;;4.97;2.37;;;2.40;75.10;;;;;;4932773;29;20046;-80
2021/01/15 00:28:56;;;;;;;5.37;2.47;;;2.40;75.20;;;;;;4928757;29;20049;-81
2021/01/15 00:31:34;;;;;;;5.47;2.27;;;2.40;74.40;;;;;;4914587;29;20028;-83
2021/01/15 00:34:01;;;;;;;3.80;2.30;;;2.30;74.60;;;;;;4938532;29;20050;-81
2021/01/15 00:36:26;;;;;;;7.63;2.43;;;2.30;74.40;;;;;;4922421;29;20165;-82
2021/01/15 00:38:52;;;;;;;4.23;2.30;;;2.30;74.10;;;;;;4922481;29;20047;-82
2021/01/15 00:41:18;;;;;;;4.43;2.30;;;2.30;74.60;;;;;;4921605;29;20107;-81
2021/01/15 00:43:43;;;;;;;4.37;2.53;;;2.30;74.40;;;;;;4911179;29;20039;-82
2021/01/15 00:49:14;;;;;;;3.55;2.00;;;2.30;73.90;;;;;;4922102;29;20386;-83
2021/01/15 00:51:47;;;;;;;5.20;2.27;;;2.30;74.10;;;;;;4932221;29;20038;-81
2021/01/15 00:54:13;;;;;;;6.27;2.40;;;2.20;74.70;;;;;;4924653;29;20412;-81
2021/01/15 00:56:38;;;;;;;4.33;2.33;;;2.20;74.40;;;;;;4922064;29;20884;-82
2021/01/15 00:59:04;;;;;;;6.07;2.30;;;2.20;74.80;;;;;;4914496;29;20039;-81
2021/01/15 01:01:30;;;;;;;4.30;1.93;;;2.20;73.90;;;;;;4911551;29;20039;-84
2021/01/15 01:03:55;;;;;;;3.67;2.20;;;2.20;74.50;;;;;;4908194;29;20024;-85
2021/01/15 01:06:22;;;;;;;5.23;2.33;;;2.20;74.30;;;;;;4917516;29;20043;-85
2021/01/15 01:08:49;;;;;;;6.07;2.70;;;2.20;74.50;;;;;;4905483;29;20027;-85
2021/01/15 01:11:19;;;;;;;4.40;2.47;;;2.20;74.10;;;;;;4924332;29;20031;-84
2021/01/15 01:13:46;;;;;;;5.17;2.40;;;2.10;74.30;;;;;;4926261;29;20122;-84
2021/01/15 01:16:16;;;;;;;3.93;2.13;;;2.10;74.40;;;;;;4916253;29;20038;-85
2021/01/15 01:18:42;;;;;;;5.30;2.47;;;2.00;74.30;;;;;;4921548;29;20032;-85
2021/01/15 01:21:09;;;;;;;6.47;2.57;;;2.10;74.30;;;;;;4914023;29;20032;-84
2021/01/15 01:23:34;;;;;;;4.23;2.00;;;2.00;74.20;;;;;;4925853;29;20038;-85
2021/01/15 01:26:00;;;;;;;4.40;2.00;;;1.90;74.20;;;;;;4915329;29;20452;-85
2021/01/15 01:28:26;;;;;;;5.60;2.33;;;1.90;74.40;;;;;;4921475;29;20513;-85
2021/01/15 01:30:51;;;;;;;3.70;2.30;;;1.90;74.90;;;;;;4933239;29;20039;-85
2021/01/15 01:33:17;;;;;;;5.43;2.57;;;1.90;74.50;;;;;;4925961;29;20469;-84
2021/01/15 01:35:42;;;;;;;2.97;2.20;;;1.90;74.50;;;;;;4909749;29;20159;-86
2021/01/15 01:38:08;;;;;;;4.67;2.50;;;1.90;73.70;;;;;;4915188;29;20063;-83
2021/01/15 01:40:34;;;;;;;3.80;2.00;;;1.90;74.20;;;;;;4905013;29;20029;-82
2021/01/15 01:43:00;;;;;;;4.53;2.23;;;1.80;73.90;;;;;;4915103;29;20084;-84
2021/01/15 01:45:26;;;;;;;5.17;2.50;;;1.80;74.10;;;;;;4926529;29;20098;-83
2021/01/15 01:47:54;;;;;;;4.47;2.30;;;1.80;73.80;;;;;;4908444;29;20036;-84
2021/01/15 01:50:21;;;;;;;5.50;2.30;;;1.70;73.90;;;;;;4933038;29;20501;-83
2021/01/15 01:52:47;;;;;;;3.47;2.13;;;1.70;74.10;;;;;;4920119;29;20472;-83
2021/01/15 01:55:14;;;;;;;4.30;2.50;;;1.70;74.10;;;;;;4912627;29;20056;-83
2021/01/15 01:57:40;;;;;;;6.20;2.33;;;1.70;74.30;;;;;;4928278;29;20039;-83
2021/01/15 02:00:07;;;;;;;5.97;2.57;;;1.70;74.20;;;;;;4905712;29;20492;-83
2021/01/15 02:02:32;;;;;;;4.50;1.90;;;1.70;73.90;;;;;;4933449;29;20032;-83
2021/01/15 02:04:58;;;;;;;3.40;2.10;;;1.70;74.10;;;;;;4922922;29;20050;-82
2021/01/15 02:07:24;;;;;;;4.77;2.40;;;1.70;74.10;;;;;;4930359;29;20032;-83
2021/01/15 02:10:03;;;;;;;4.33;2.07;;;1.60;73.90;;;;;;4920071;29;20032;-83
2021/01/15 02:12:58;;;;;;;7.23;2.60;;;1.60;74.40;;;;;;4918713;29;20080;-83
2021/01/15 02:15:37;;;;;;;3.57;2.03;;;1.60;74.00;;;;;;4915978;29;20071;-82
2021/01/15 02:18:07;;;;;;;3.97;2.43;;;1.60;73.80;;;;;;4906249;29;20044;-83
2021/01/15 02:20:41;;;;;;;6.23;2.60;;;1.60;74.00;;;;;;4932718;29;20504;-83
2021/01/15 02:23:30;;;;;;;3.80;2.17;;;1.50;73.60;;;;;;4907524;29;20036;-83
2021/01/15 02:26:04;;;;;;;5.17;2.23;;;1.50;73.70;;;;;;4913577;29;20031;-84
2021/01/15 02:29:07;;;;;;;4.67;2.33;;;1.50;74.00;;;;;;4903920;29;20028;-84
2021/01/15 02:31:45;;;;;;;5.13;2.10;;;1.50;73.80;;;;;;4936092;29;20031;-84
2021/01/15 02:34:54;;;;;;;3.97;2.10;;;1.50;73.40;;;;;;4904800;29;20039;-83
2021/01/15 02:37:38;;;;;;;3.73;2.20;;;1.50;73.10;;;;;;4935155;29;20111;-84
2021/01/15 02:40:12;;;;;;;5.70;2.63;;;1.50;73.10;;;;;;4922509;29;20033;-82
2021/01/15 02:42:39;;;;;;;5.70;2.07;;;1.40;72.90;;;;;;4919540;29;20442;-84
2021/01/15 02:45:10;;;;;;;3.33;2.10;;;1.50;73.20;;;;;;4929427;29;20036;-82
2021/01/15 02:47:45;;;;;;;5.00;2.03;;;1.50;73.10;;;;;;4910776;29;20027;-84
2021/01/15 02:50:11;;;;;;;4.33;2.17;;;1.40;73.10;;;;;;4920794;29;20119;-84
2021/01/15 02:52:37;;;;;;;3.93;2.27;;;1.50;73.30;;;;;;4915897;29;20060;-84
2021/01/15 02:55:03;;;;;;;2.90;2.00;;;1.50;73.30;;;;;;4905522;29;20047;-84
2021/01/15 02:57:29;;;;;;;5.17;2.20;;;1.50;73.00;;;;;;4909562;29;20095;-84
2021/01/15 02:59:55;;;;;;;4.87;2.17;;;1.50;72.90;;;;;;4918832;29;20035;-84
2021/01/15 03:02:35;;;;;;;3.60;1.90;;;1.50;72.00;;;;;;4938534;28;20481;-84
2021/01/15 03:05:13;;;;;;;4.43;2.07;;;1.40;72.10;;;;;;4905229;29;20055;-84
2021/01/15 03:07:42;;;;;;;4.37;2.00;;;1.40;72.20;;;;;;4943043;29;20028;-83
2021/01/15 03:10:09;;;;;;;3.83;2.30;;;1.40;72.70;;;;;;4904064;29;20032;-83
2021/01/15 03:12:37;;;;;;;5.97;2.40;;;1.40;72.60;;;;;;4915234;29;20119;-83
2021/01/15 03:15:04;;;;;;;3.77;2.03;;;1.40;72.90;;;;;;4924692;29;20023;-83
2021/01/15 03:17:33;;;;;;;3.13;2.20;;;1.40;72.50;;;;;;4908954;29;20047;-83
2021/01/15 03:19:59;;;;;;;8.47;2.43;;;1.40;72.10;;;;;;4913069;29;20040;-83
2021/01/15 03:22:26;;;;;;;4.43;2.40;;;1.40;72.40;;;;;;4917097;29;20027;-83
2021/01/15 03:24:57;;;;;;;4.97;2.47;;;1.30;72.20;;;;;;4914300;29;20039;-83
2021/01/15 03:27:37;;;;;;;3.58;1.80;;;1.30;71.50;;;;;;4907990;29;20028;-83
2021/01/15 03:30:04;;;;;;;4.67;1.93;;;1.30;72.20;;;;;;4921805;29;20470;-83
2021/01/15 03:32:29;;;;;;;4.80;2.07;;;1.30;71.50;;;;;;4934649;29;20084;-83
2021/01/15 03:34:55;;;;;;;4.73;1.97;;;1.30;71.20;;;;;;4908382;29;20019;-82
2021/01/15 03:37:20;;;;;;;2.60;1.70;;;1.30;72.20;;;;;;4929363;29;20097;-84
2021/01/15 03:39:46;;;;;;;3.97;2.00;;;1.30;71.40;;;;;;4928081;29;20603;-84
2021/01/15 03:42:11;;;;;;;3.30;1.90;;;1.30;70.50;;;;;;4934712;29;20034;-83
2021/01/15 03:44:37;;;;;;;4.27;2.37;;;1.20;71.00;;;;;;4923516;29;20512;-83
2021/01/15 03:47:03;;;;;;;4.60;2.27;;;1.20;70.90;;;;;;4916839;29;20035;-83
2021/01/15 03:49:28;;;;;;;4.53;2.30;;;1.20;70.50;;;;;;4928740;29;20115;-83
2021/01/15 03:51:54;;;;;;;4.17;2.10;;;1.20;71.00;;;;;;4930704;29;20023;-83
2021/01/15 03:54:19;;;;;;;6.57;2.70;;;1.20;71.30;;;;;;4906370;29;20516;-83
2021/01/15 03:56:45;;;;;;;5.40;2.53;;;1.20;70.90;;;;;;4918813;29;20043;-84
2021/01/15 03:59:11;;;;;;;5.63;2.37;;;1.10;70.90;;;;;;4909289;29;20086;-82
2021/01/15 04:01:36;;;;;;;4.07;2.20;;;1.10;71.40;;;;;;4912177;29;20111;-83
2021/01/15 04:04:03;;;;;;;3.97;2.30;;;1.10;71.30;;;;;;4933295;29;20028;-83
2021/01/15 04:06:29;;;;;;;5.17;2.20;;;1.00;71.60;;;;;;4906312;29;20139;-84
2021/01/15 04:08:54;;;;;;;6.30;2.40;;;1.00;72.00;;;;;;4917229;29;20529;-83
2021/01/15 04:11:20;;;;;;;4.83;2.40;;;1.00;71.90;;;;;;4912558;29;20049;-84
2021/01/15 04:13:46;;;;;;;7.00;3.00;;;1.00;72.20;;;;;;4929654;29;20034;-84
2021/01/15 04:16:15;;;;;;;7.63;2.67;;;1.00;72.10;;;;;;4906366;29;20545;-84
2021/01/15 04:18:42;;;;;;;9.63;3.30;;;0.90;72.30;;;;;;4921028;29;20119;-84
2021/01/15 04:21:08;;;;;;;8.93;2.47;;;0.90;71.90;;;;;;4932659;29;20043;-83
2021/01/15 04:23:35;;;;;;;4.60;2.27;;;0.90;72.10;;;;;;4944468;29;20031;-84
2021/01/15 04:26:01;;;;;;;7.30;2.60;;;0.80;72.30;;;;;;4908514;29;20060;-83
2021/01/15 04:28:28;;;;;;;5.97;2.20;;;0.80;72.50;;;;;;4904045;29;20087;-82
2021/01/15 04:30:53;;;;;;;3.37;2.30;;;0.80;71.70;;;;;;4933483;29;20035;-83
2021/01/15 04:33:19;;;;;;;5.23;2.50;;;0.80;71.70;;;;;;4909984;29;20028;-82
2021/01/15 04:35:45;;;;;;;4.27;1.97;;;0.80;72.40;;;;;;4909878;29;20075;-84
2021/01/15 04:38:11;;;;;;;6.33;2.43;;;0.80;72.40;;;;;;4916148;29;20038;-83
2021/01/15 04:40:37;;;;;;;5.17;2.33;;;0.70;72.20;;;;;;4922715;29;20122;-84
2021/01/15 04:43:04;;;;;;;7.53;2.33;;;0.70;72.10;;;;;;4931785;29;20072;-84
2021/01/15 04:45:30;;;;;;;6.63;2.57;;;0.70;72.30;;;;;;4928299;29;20103;-84
2021/01/15 04:47:57;;;;;;;6.73;2.67;;;0.70;71.90;;;;;;4926201;29;20087;-84
2021/01/15 04:50:23;;;;;;;6.10;2.27;;;0.70;72.50;;;;;;4917272;29;20169;-84
2021/01/15 04:52:52;;;;;;;5.37;2.47;;;0.70;71.80;;;;;;4913363;29;20033;-84
2021/01/15 04:55:23;;;;;;;4.17;1.83;;;0.60;72.70;;;;;;4912799;29;20127;-84
2021/01/15 04:57:51;;;;;;;5.27;2.03;;;0.70;71.90;;;;;;4913801;29;20144;-83
2021/01/15 05:00:22;;;;;;;7.23;2.27;;;0.70;72.30;;;;;;4905168;29;20521;-84
2021/01/15 05:02:49;;;;;;;5.77;2.13;;;0.60;72.20;;;;;;4922671;29;20016;-84
2021/01/15 05:05:25;;;;;;;4.33;2.23;;;0.60;72.50;;;;;;4913598;29;20028;-83
2021/01/15 05:08:09;;;;;;;5.53;2.47;;;0.60;72.80;;;;;;4914583;29;20035;-84
2021/01/15 05:10:38;;;;;;;5.53;2.00;;;0.60;72.80;;;;;;4912468;29;20465;-84
2021/01/15 05:13:09;;;;;;;4.63;2.43;;;0.50;73.10;;;;;;4931942;29;20027;-84
2021/01/15 05:15:37;;;;;;;7.43;1.90;;;0.50;72.50;;;;;;4911108;29;20056;-82
2021/01/15 05:18:05;;;;;;;7.07;2.43;;;0.50;72.80;;;;;;4906918;29;20040;-84
2021/01/15 05:20:31;;;;;;;6.07;2.63;;;0.50;72.30;;;;;;4916963;29;20066;-84
2021/01/15 05:23:01;;;;;;;3.10;2.20;;;0.40;72.20;;;;;;4908987;29;20020;-84
2021/01/15 05:25:28;;;;;;;6.47;2.63;;;0.40;71.80;;;;;;4910292;29;20078;-84
2021/01/15 05:27:54;;;;;;;6.10;2.43;;;0.40;72.50;;;;;;4909022;29;20036;-84
2021/01/15 05:30:23;;;;;;;3.63;2.20;;;0.30;72.20;;;;;;4933453;29;20031;-83
2021/01/15 05:32:54;;;;;;;4.83;2.30;;;0.30;72.20;;;;;;4905849;29;20112;-84
2021/01/15 05:35:21;;;;;;;6.70;2.53;;;0.30;72.70;;;;;;4912242;29;20076;-82
2021/01/15 05:37:58;;;;;;;3.97;2.10;;;0.30;72.50;;;;;;4912982;29;20038;-82
2021/01/15 05:40:45;;;;;;;5.70;2.40;;;0.30;72.50;;;;;;4904459;29;20087;-82
2021/01/15 05:43:31;;;;;;;6.40;2.67;;;0.30;73.30;;;;;;4913842;29;20020;-83
2021/01/15 05:46:20;;;;;;;4.43;2.47;;;0.30;72.80;;;;;;4914425;29;20453;-82
2021/01/15 05:48:53;;;;;;;4.50;2.20;;;0.30;72.70;;;;;;4922143;29;20107;-85
2021/01/15 05:51:27;;;;;;;5.93;2.27;;;0.20;72.90;;;;;;4912229;29;20032;-85
2021/01/15 05:53:53;;;;;;;3.37;1.93;;;0.20;73.20;;;;;;4936689;29;20373;-85
2021/01/15 05:56:20;;;;;;;5.17;2.63;;;0.20;73.30;;;;;;4939470;29;20024;-85
2021/01/15 05:59:05;;;;;;;5.03;2.33;;;0.20;73.30;;;;;;4904800;29;20028;-85
2021/01/15 06:01:44;;;;;;;3.47;2.33;;;0.10;73.00;;;;;;4910716;29;20024;-85
2021/01/15 06:04:11;;;;;;;5.77;2.90;;;0.10;73.30;;;;;;4915558;29;20028;-84
2021/01/15 06:06:37;;;;;;;4.50;2.30;;;0.10;73.40;;;;;;4903896;29;20032;-83
2021/01/15 06:09:08;;;;;;;4.20;2.53;;;0.10;73.50;;;;;;4914827;29;20024;-83
2021/01/15 06:11:35;;;;;;;5.47;2.57;;;0.10;73.80;;;;;;4927201;29;20225;-82
2021/01/15 06:14:01;;;;;;;6.07;3.07;;;0.10;73.60;;;;;;4906533;29;20074;-82
2021/01/15 06:16:27;;;;;;;5.63;2.50;;;0.00;74.00;;;;;;4915999;29;20027;-84
2021/01/15 06:19:01;;;;;;;4.87;3.03;;;0.00;74.00;;;;;;4905370;29;20048;-84
2021/01/15 06:21:34;;;;;;;4.10;2.60;;;0.00;74.00;;;;;;4911978;29;20028;-84
2021/01/15 06:24:05;;;;;;;4.90;2.77;;;0.00;74.10;;;;;;4925377;29;20123;-84
2021/01/15 06:26:35;;;;;;;5.63;2.67;;;0.00;74.20;;;;;;4903479;29;20036;-83
2021/01/15 06:29:05;;;;;;;5.23;3.00;;;0.00;74.20;;;;;;4914306;29;20052;-84
2021/01/15 06:31:51;;;;;;;7.83;3.10;;;0.00;74.30;;;;;;4926753;29;20020;-84
2021/01/15 06:34:18;;;;;;;7.53;3.03;;;0.00;74.90;;;;;;4903973;29;20461;-85
2021/01/15 06:36:48;;;;;;;6.13;3.17;;;0.00;74.70;;;;;;4933095;29;20075;-85
2021/01/15 06:39:16;;;;;;;6.73;3.07;;;0.00;75.00;;;;;;4924257;29;20034;-83
2021/01/15 06:41:43;;;;;;;6.63;2.93;;;0.00;74.70;;;;;;4908205;29;20123;-83
2021/01/15 06:44:10;;;;;;;6.47;3.53;;;0.00;74.90;;;;;;4931476;29;20056;-83
2021/01/15 06:46:41;;;;;;;5.53;3.10;;;0.00;74.80;;;;;;4900793;29;20501;-83
2021/01/15 06:49:17;;;;;;;3.85;2.70;;;0.00;74.90;;;;;;4923979;29;20044;-82
2021/01/15 06:51:56;;;;;;;5.93;3.27;;;0.00;75.30;;;;;;4930032;29;20032;-82
2021/01/15 06:54:38;;;;;;;7.30;3.63;;;0.00;75.80;;;;;;4954271;29;20058;-83
2021/01/15 06:57:19;;;;;;;7.47;3.88;;;0.00;75.60;;;;;;4913350;29;20059;-82
2021/01/15 06:59:51;;;;;;;6.57;3.70;;;-0.10;75.80;;;;;;4911084;29;20035;-82
2021/01/15 07:02:23;;;;;;;;;;;-0.10;76.00;;;;;;4922573;29;20270;-82
2021/01/15 07:04:59;;;;;;;7.80;3.77;;;-0.10;76.30;;;;;;4903854;29;19906;-83
2021/01/15 07:07:27;;;;;;;11.53;5.10;;;-0.10;76.30;;;;;;4924308;29;20036;-83
2021/01/15 07:09:53;;;;;;;13.00;5.50;;;-0.10;76.50;;;;;;4923205;29;20035;-83
2021/01/15 07:12:21;;;;;;;8.43;4.47;;;-0.10;77.00;;;;;;4915024;29;20031;-83
2021/01/15 07:14:59;;;;;;;7.30;4.13;;;-0.10;77.40;;;;;;4939698;29;20027;-82
2021/01/15 07:17:43;;;;;;;8.23;3.73;;;-0.20;77.50;;;;;;4909416;29;20040;-82
2021/01/15 07:20:10;;;;;;;7.53;4.00;;;-0.20;78.10;;;;;;4914163;29;20078;-83
2021/01/15 07:22:58;;;;;;;7.90;4.40;;;-0.30;77.90;;;;;;4934963;29;20028;-82
2021/01/15 07:25:24;;;;;;;9.60;4.40;;;-0.20;78.00;;;;;;4918257;29;20027;-82
2021/01/15 07:27:50;;;;;;;8.93;4.40;;;-0.20;78.00;;;;;;4923981;29;20067;-83
2021/01/15 07:30:24;;;;;;;9.97;4.50;;;-0.20;78.00;;;;;;4900241;29;20422;-84
2021/01/15 07:32:51;;;;;;;8.77;4.23;;;-0.20;78.00;;;;;;4931336;29;20113;-84
2021/01/15 07:35:19;;;;;;;8.33;3.90;;;-0.10;78.00;;;;;;4907410;29;20035;-82
2021/01/15 07:37:46;;;;;;;7.63;4.10;;;-0.10;78.40;;;;;;4926138;29;20038;-84
2021/01/15 07:40:21;;;;;;;8.97;4.40;;;-0.10;78.70;;;;;;4935837;29;20042;-85
2021/01/15 07:42:52;;;;;;;8.17;4.27;;;-0.10;79.20;;;;;;4899774;29;20397;-84
2021/01/15 07:45:24;;;;;;;8.80;3.92;;;-0.10;78.60;;;;;;4907468;29;20052;-84
2021/01/15 07:47:54;;;;;;;9.90;4.82;;;-0.10;78.80;;;;;;4907106;29;20029;-84
2021/01/15 07:50:31;;;;;;;8.97;4.63;;;-0.10;79.00;;;;;;4914790;29;20378;-85
2021/01/15 07:53:19;;;;;;;8.90;4.83;;;-0.10;79.30;;;;;;4919332;29;20023;-84
2021/01/15 07:55:58;;;;;;;11.83;4.87;;;-0.10;79.20;;;;;;4907547;29;20071;-85
2021/01/15 07:58:39;;;;;;;14.20;4.80;;;-0.10;79.40;;;;;;4915871;29;20023;-85
2021/01/15 08:01:06;;;;;;;9.60;4.55;;;-0.10;79.60;;;;;;4918984;29;20032;-85
2021/01/15 08:03:45;;;;;;;11.07;5.00;;;0.00;79.70;;;;;;4908395;29;20086;-85
2021/01/15 08:06:11;;;;;;;11.77;5.27;;;0.00;79.50;;;;;;4913969;29;20114;-85
2021/01/15 08:09:02;;;;;;;11.53;5.73;;;0.00;79.40;;;;;;4900364;29;20035;-84
2021/01/15 08:11:33;;;;;;;14.10;5.87;;;0.00;79.60;;;;;;4910752;29;20030;-84
2021/01/15 08:14:16;;;;;;;9.17;5.07;;;0.00;79.20;;;;;;4941101;28;20031;-83
2021/01/15 08:16:44;;;;;;;11.50;6.07;;;0.10;79.30;;;;;;4902074;29;20031;-85
2021/01/15 08:19:23;;;;;;;10.40;5.03;;;0.10;79.40;;;;;;4914234;29;20036;-84
2021/01/15 08:21:50;;;;;;;11.97;4.97;;;0.10;79.20;;;;;;4914647;29;20081;-84
2021/01/15 08:24:17;;;;;;;11.50;4.43;;;0.20;79.10;;;;;;4921644;29;20036;-83
2021/01/15 08:26:54;;;;;;;10.80;5.67;;;0.20;78.90;;;;;;4905815;29;20027;-83
2021/01/15 08:29:22;;;;;;;11.63;5.03;;;0.20;79.00;;;;;;4914298;29;20393;-84
2021/01/15 08:31:48;;;;;;;10.90;5.37;;;0.20;79.00;;;;;;4914013;29;20084;-84
2021/01/15 08:34:16;;;;;;;12.47;5.93;;;0.20;79.20;;;;;;4923283;29;20086;-84
2021/01/15 08:36:48;;;;;;;12.43;5.27;;;0.20;79.40;;;;;;4920671;29;20035;-85
2021/01/15 08:39:14;;;;;;;11.35;5.20;;;0.20;79.40;;;;;;4914686;29;20039;-85
2021/01/15 08:41:40;;;;;;;11.70;5.17;;;0.20;79.40;;;;;;4929596;29;20485;-85
2021/01/15 08:44:07;;;;;;;10.43;5.10;;;0.20;79.60;;;;;;4907813;29;20150;-85
2021/01/15 08:46:34;;;;;;;11.47;5.17;;;0.20;79.80;;;;;;4917598;29;20032;-84
2021/01/15 08:49:05;;;;;;;13.53;5.60;;;0.30;79.20;;;;;;4907946;29;20481;-84
2021/01/15 08:51:34;;;;;;;10.38;5.50;;;0.30;79.40;;;;;;4912414;29;20107;-84
2021/01/15 08:54:05;;;;;;;9.67;5.10;;;0.20;79.40;;;;;;4921162;29;20075;-83
2021/01/15 08:56:33;;;;;;;11.87;6.33;;;0.30;79.60;;;;;;4919088;29;20036;-82
2021/01/15 08:58:59;;;;;;;10.50;5.33;;;0.30;79.30;;;;;;4907229;29;20044;-82
2021/01/15 09:01:33;;;;;;;12.03;5.80;;;0.30;78.90;;;;;;4916406;29;20038;-83
2021/01/15 09:04:11;;;;;;;11.40;5.73;;;0.30;79.10;;;;;;4931050;29;20035;-85
2021/01/15 09:06:40;;;;;;;12.97;5.80;;;0.30;79.20;;;;;;4925315;29;20033;-85
2021/01/15 09:09:10;;;;;;;10.87;5.40;;;0.30;78.90;;;;;;4930260;29;20031;-85
2021/01/15 09:11:40;;;;;;;11.17;5.43;;;0.30;78.60;;;;;;4910118;29;20429;-84
2021/01/15 09:14:12;;;;;;;11.70;5.27;;;0.30;78.70;;;;;;4915898;29;20028;-84
2021/01/15 09:16:39;;;;;;;10.15;5.20;;;0.40;78.80;;;;;;4904608;29;20032;-84
2021/01/15 09:19:07;;;;;;;13.23;5.43;;;0.40;79.00;;;;;;4914910;29;20044;-82
2021/01/15 09:21:43;;;;;;;11.13;5.63;;;0.40;78.80;;;;;;4904268;29;20039;-86
2021/01/15 09:24:09;;;;;;;12.47;5.67;;;0.40;78.50;;;;;;4925816;29;20465;-89
2021/01/15 09:26:35;;;;;;;10.57;5.47;;;0.50;77.90;;;;;;4935440;29;20035;-82
2021/01/15 09:29:01;;;;;;;10.00;5.60;;;0.50;78.20;;;;;;4951694;28;20027;-84
2021/01/15 09:31:26;;;;;;;13.67;6.43;;;0.50;78.20;;;;;;4930122;29;20039;-84
2021/01/15 09:33:52;;;;;;;11.13;5.37;;;0.60;77.70;;;;;;4908598;29;20032;-84
2021/01/15 09:36:27;;;;;;;10.57;5.43;;;0.70;77.70;;;;;;4917041;29;20111;-84
2021/01/15 09:38:54;;;;;;;9.03;5.27;;;0.60;77.40;;;;;;4927654;29;20038;-83
2021/01/15 09:41:20;;;;;;;11.40;5.37;;;0.70;77.30;;;;;;4912535;29;20382;-86
2021/01/15 09:43:47;;;;;;;10.57;5.33;;;0.70;76.40;;;;;;4929552;29;20028;-84
2021/01/15 09:46:21;;;;;;;12.50;5.70;;;0.80;76.70;;;;;;4935196;29;20038;-82
2021/01/15 09:48:46;;;;;;;8.17;4.57;;;0.80;76.80;;;;;;4901701;29;20024;-85
2021/01/15 09:51:12;;;;;;;12.83;5.40;;;0.80;76.80;;;;;;4923965;29;20126;-89
2021/01/15 09:53:37;;;;;;;11.03;5.63;;;0.90;76.50;;;;;;4918605;29;20425;-84
2021/01/15 09:56:03;;;;;;;9.13;5.00;;;1.00;76.30;;;;;;4922623;29;20533;-86
2021/01/15 09:58:29;;;;;;;10.87;5.47;;;1.00;76.30;;;;;;4900430;29;20040;-86
2021/01/15 10:00:55;;;;;;;11.00;5.33;;;1.00;76.10;;;;;;4910646;29;20024;-86
2021/01/15 10:03:20;;;;;;;11.80;5.10;;;1.00;76.00;;;;;;4909210;29;20076;-90
2021/01/15 10:05:46;;;;;;;10.90;5.27;;;1.10;75.80;;;;;;4909161;29;20032;-90
2021/01/15 10:08:11;;;;;;;11.87;5.30;;;1.20;76.10;;;;;;4909677;29;20068;-86
2021/01/15 10:10:37;;;;;;;11.47;5.47;;;1.20;75.50;;;;;;4915775;29;20493;-84
2021/01/15 10:13:03;;;;;;;9.23;5.00;;;1.20;75.60;;;;;;4912317;29;20031;-85
2021/01/15 10:15:28;;;;;;;8.60;4.90;;;1.20;75.20;;;;;;4901480;29;20032;-85
2021/01/15 10:17:54;;;;;;;10.33;5.33;;;1.30;75.60;;;;;;4915728;29;20604;-86
2021/01/15 10:20:25;;;;;;;9.60;5.00;;;1.40;75.40;;;;;;4906682;29;20518;-80
2021/01/15 10:22:51;;;;;;;9.77;4.97;;;1.40;74.50;;;;;;4912767;29;20039;-86
2021/01/15 10:25:17;;;;;;;8.63;5.23;;;1.40;74.80;;;;;;4907566;29;20033;-88
2021/01/15 10:27:42;;;;;;;11.67;5.07;;;1.40;74.10;;;;;;4909189;29;20032;-88
2021/01/15 10:30:09;;;;;;;9.27;4.83;;;1.40;74.10;;;;;;4905581;29;20029;-83
2021/01/15 10:32:34;;;;;;;8.10;4.97;;;1.50;74.10;;;;;;4913289;29;20028;-87
2021/01/15 10:35:01;;;;;;;10.33;4.77;;;1.50;74.30;;;;;;4918692;29;20103;-87
2021/01/15 10:37:27;;;;;;;8.33;5.07;;;1.60;73.80;;;;;;4901942;29;20052;-89
2021/01/15 10:39:54;;;;;;;9.83;5.33;;;1.70;73.90;;;;;;4908955;29;20486;-89
2021/01/15 10:42:20;;;;;;;10.13;4.67;;;1.70;73.20;;;;;;4901927;29;20040;-88
2021/01/15 10:44:45;;;;;;;10.57;5.17;;;1.70;73.80;;;;;;4906515;29;20020;-88
2021/01/15 10:47:14;;;;;;;10.07;4.97;;;1.70;74.00;;;;;;4907446;29;20024;-85
2021/01/15 10:49:40;;;;;;;9.57;4.90;;;1.80;73.00;;;;;;4905429;29;20457;-84
2021/01/15 10:52:06;;;;;;;9.87;5.10;;;1.80;72.90;;;;;;4910041;29;20027;-85
2021/01/15 10:54:32;;;;;;;8.53;5.00;;;1.80;72.90;;;;;;4907130;29;20044;-86
2021/01/15 10:56:57;;;;;;;12.30;4.87;;;1.90;72.60;;;;;;4903295;29;20080;-89
2021/01/15 10:59:23;;;;;;;12.83;4.87;;;1.90;72.40;;;;;;4901479;29;20064;-82
2021/01/15 11:01:50;;;;;;;9.67;4.90;;;2.00;71.70;;;;;;4905973;29;20025;-83
2021/01/15 11:04:18;;;;;;;8.73;4.77;;;2.00;71.00;;;;;;4915717;29;20115;-87
2021/01/15 11:06:57;;;;;;;9.40;4.60;;;2.00;70.80;;;;;;4913778;29;20173;-89
2021/01/15 11:09:25;;;;;;;10.43;4.80;;;2.00;71.40;;;;;;4922638;29;20038;-81
2021/01/15 11:11:52;;;;;;;8.70;4.90;;;2.10;71.10;;;;;;4903490;29;20084;-93
2021/01/15 11:14:19;;;;;;;9.30;4.80;;;2.10;71.50;;;;;;4912244;29;20034;-92
2021/01/15 11:16:45;;;;;;;9.67;4.93;;;2.20;71.20;;;;;;4899144;29;20048;-86
2021/01/15 11:19:11;;;;;;;8.87;4.67;;;2.30;71.40;;;;;;4916153;29;20036;-90
2021/01/15 11:21:37;;;;;;;10.70;4.77;;;2.30;71.20;;;;;;4909035;29;20031;-87
2021/01/15 11:24:03;;;;;;;10.23;4.40;;;2.40;71.40;;;;;;4935014;29;20024;-80
2021/01/15 11:26:31;;;;;;;9.50;4.93;;;2.40;72.00;;;;;;4930522;29;20060;-81
2021/01/15 11:29:03;;;;;;;8.87;4.57;;;2.40;72.50;;;;;;4897240;29;20087;-82
2021/01/15 11:31:28;;;;;;;9.90;4.65;;;2.50;71.80;;;;;;4898262;29;20107;-83
2021/01/15 11:33:55;;;;;;;9.87;4.93;;;2.50;72.10;;;;;;4896853;29;20175;-83
2021/01/15 11:36:21;;;;;;;11.47;5.03;;;2.50;71.80;;;;;;4920592;29;20055;-85
2021/01/15 11:38:50;;;;;;;8.20;4.07;;;2.60;70.50;;;;;;4918561;29;20075;-88
2021/01/15 11:41:16;;;;;;;8.50;4.60;;;2.60;69.20;;;;;;4916580;29;20470;-84
2021/01/15 11:43:43;;;;;;;8.57;4.47;;;2.70;69.20;;;;;;4917241;29;20028;-84
2021/01/15 11:46:10;;;;;;;7.30;3.90;;;2.60;70.00;;;;;;4910562;29;20119;-87
2021/01/15 11:48:37;;;;;;;8.07;4.37;;;2.70;70.70;;;;;;4918600;29;20028;-87
2021/01/15 11:51:04;;;;;;;10.83;4.67;;;2.70;70.60;;;;;;4932514;29;20035;-86
2021/01/15 11:53:34;;;;;;;6.57;3.77;;;2.70;70.30;;;;;;4920917;29;20077;-86
2021/01/15 11:56:01;;;;;;;8.17;4.50;;;2.80;70.80;;;;;;4930476;29;20031;-85
2021/01/15 11:58:27;;;;;;;8.80;4.23;;;2.90;69.40;;;;;;4911572;29;20047;-89
2021/01/15 12:00:52;;;;;;;9.00;4.57;;;2.90;69.60;;;;;;4938806;29;20074;-88
2021/01/15 12:03:18;;;;;;;9.00;4.47;;;2.90;69.90;;;;;;4929215;29;20421;-89
2021/01/15 12:05:46;;;;;;;7.30;4.03;;;2.90;69.50;;;;;;4924021;29;20486;-88
2021/01/15 12:08:12;;;;;;;6.97;3.73;;;2.90;69.00;;;;;;4913994;29;20102;-84
2021/01/15 12:10:37;;;;;;;9.53;4.27;;;3.00;68.30;;;;;;4934863;29;20548;-82
2021/01/15 12:13:03;;;;;;;7.83;4.07;;;3.20;67.60;;;;;;4914593;29;20032;-87
2021/01/15 12:15:29;;;;;;;7.30;3.70;;;3.30;67.20;;;;;;4932576;29;20458;-84
2021/01/15 12:17:54;;;;;;;8.80;4.20;;;3.50;67.00;;;;;;4927309;29;20073;-88
2021/01/15 12:20:20;;;;;;;12.73;4.53;;;3.70;65.40;;;;;;4918751;29;20036;-86
2021/01/15 12:22:49;;;;;;;9.00;4.20;;;3.90;64.90;;;;;;4914254;29;20028;-87
2021/01/15 12:25:15;;;;;;;8.80;4.20;;;4.10;63.80;;;;;;4907129;29;20032;-87
2021/01/15 12:27:41;;;;;;;9.27;4.33;;;4.30;63.40;;;;;;4913445;29;20031;-86
2021/01/15 12:30:07;;;;;;;7.33;4.33;;;4.60;62.20;;;;;;4916645;29;20541;-84
2021/01/15 12:32:33;;;;;;;8.47;4.50;;;4.80;61.20;;;;;;4921947;29;20020;-83
2021/01/15 12:34:59;;;;;;;8.00;4.40;;;5.00;60.60;;;;;;4916620;29;20032;-84
2021/01/15 12:37:28;;;;;;;7.83;3.83;;;5.20;60.30;;;;;;4928128;29;20485;-88
2021/01/15 12:39:55;;;;;;;7.33;4.17;;;5.40;59.20;;;;;;4909006;29;20060;-88
2021/01/15 12:42:21;;;;;;;7.57;4.17;;;5.50;58.80;;;;;;4917779;29;20039;-83
2021/01/15 12:44:46;;;;;;;5.73;3.70;;;5.60;58.90;;;;;;4913912;29;20047;-86
2021/01/15 12:47:12;;;;;;;6.57;3.87;;;5.70;58.70;;;;;;4917633;29;20032;-85
2021/01/15 12:49:38;;;;;;;5.43;3.63;;;5.90;58.40;;;;;;4927979;29;20025;-88
2021/01/15 12:52:04;;;;;;;6.30;3.63;;;6.00;56.90;;;;;;4915837;29;20056;-87
2021/01/15 12:54:30;;;;;;;6.53;3.67;;;6.00;57.10;;;;;;4921633;29;20048;-88
2021/01/15 12:56:55;;;;;;;6.20;3.17;;;6.00;57.30;;;;;;4916240;29;20038;-82
2021/01/15 12:59:21;;;;;;;6.77;3.30;;;6.10;56.90;;;;;;4910557;29;20032;-85
2021/01/15 13:01:46;;;;;;;5.00;3.30;;;6.30;56.90;;;;;;4909132;29;20497;-81
2021/01/15 13:04:12;;;;;;;7.30;3.80;;;6.40;56.10;;;;;;4916182;29;20027;-81
2021/01/15 13:06:41;;;;;;;5.93;3.67;;;6.30;55.70;;;;;;4917950;29;20461;-81
2021/01/15 13:09:08;;;;;;;6.03;3.23;;;6.40;55.30;;;;;;4907944;29;20122;-84